Time;durP1;ratioP1;P1;durP2;ratioP2;P2;SDS_P1;SDS_P2;PMS_P1;PMS_P2;Temp;Humidity;BMP_temperature;BMP_pressure;BME280_temperature;BME280_humidity;BME280_pressure;Samples;Min_cycle;Max_cycle;Signal;HPM_P1;HPM_P2
2022/10/15 00:01:15;;;;;;;15.20;3.75;;;;;;;15.44;98.76;99204.72;5027784;28;20044;-83
2022/10/15 00:03:43;;;;;;;11.30;4.75;;;;;;;15.44;98.66;99193.19;5018911;28;20127;-83
2022/10/15 00:06:16;;;;;;;8.55;4.00;;;;;;;15.40;98.57;99190.06;5057590;28;20513;-83
2022/10/15 00:08:43;;;;;;;15.80;3.58;;;;;;;15.44;98.75;99185.16;5069593;28;20041;-83
2022/10/15 00:11:22;;;;;;;6.00;2.83;;;;;;;15.38;98.50;99186.72;5063688;28;20067;-83
2022/10/15 00:13:49;;;;;;;7.10;3.05;;;;;;;15.44;98.94;99188.66;5036135;28;20550;-83
2022/10/15 00:16:19;;;;;;;7.07;3.63;;;;;;;15.45;98.56;99192.19;5063438;28;20491;-83
2022/10/15 00:18:47;;;;;;;5.15;2.70;;;;;;;15.46;98.71;99183.97;5075095;28;20046;-83
2022/10/15 00:21:16;;;;;;;7.03;2.58;;;;;;;15.46;98.79;99181.28;5023239;28;20106;-82
2022/10/15 00:23:43;;;;;;;10.30;3.22;;;;;;;15.47;98.80;99184.78;5042478;28;20048;-82
2022/10/15 00:26:12;;;;;;;9.70;2.38;;;;;;;15.45;98.91;99186.84;5031530;28;20067;-83
2022/10/15 00:28:40;;;;;;;10.98;2.65;;;;;;;15.47;98.64;99179.44;5036376;28;20024;-82
2022/10/15 00:31:12;;;;;;;6.03;2.38;;;;;;;15.47;98.71;99180.31;5040647;28;20040;-82
2022/10/15 00:33:39;;;;;;;13.50;3.13;;;;;;;15.47;98.55;99172.28;5052552;28;20099;-82
2022/10/15 00:36:14;;;;;;;6.00;2.95;;;;;;;15.47;98.75;99174.09;5059549;28;20407;-83
2022/10/15 00:38:42;;;;;;;27.85;4.15;;;;;;;15.47;98.84;99182.97;5037353;28;20072;-82
2022/10/15 00:41:15;;;;;;;8.45;2.80;;;;;;;15.40;99.09;99172.16;5056907;28;20442;-83
2022/10/15 00:43:43;;;;;;;;;;;;;;;15.21;100.00;99167.34;5060415;28;20048;-83
2022/10/15 00:46:32;;;;;;;7.20;2.40;;;;;;;15.32;99.39;99172.25;5055858;28;19920;-83
2022/10/15 00:49:11;;;;;;;12.93;4.35;;;;;;;15.39;98.77;99173.19;5076146;28;20032;-83
2022/10/15 00:51:42;;;;;;;10.02;3.45;;;;;;;15.44;98.83;99164.59;5053557;28;20040;-83
2022/10/15 00:54:10;;;;;;;7.55;2.90;;;;;;;15.47;98.81;99171.41;5052199;28;20041;-83
2022/10/15 00:56:39;;;;;;;5.72;2.50;;;;;;;15.48;98.55;99165.06;5044926;28;20093;-83
2022/10/15 00:59:06;;;;;;;6.75;3.17;;;;;;;15.47;98.67;99156.22;5062615;28;20484;-83
2022/10/15 01:01:34;;;;;;;19.73;3.08;;;;;;;15.46;99.09;99161.75;5041113;28;20053;-83
2022/10/15 01:04:01;;;;;;;19.88;2.75;;;;;;;15.47;98.93;99158.91;5039656;28;20094;-83
2022/10/15 01:06:28;;;;;;;5.75;2.30;;;;;;;15.49;98.83;99158.69;5024827;28;20048;-83
2022/10/15 01:08:55;;;;;;;7.63;2.60;;;;;;;15.49;98.71;99153.34;5030116;28;20051;-83
2022/10/15 01:11:32;;;;;;;8.85;2.60;;;;;;;15.48;98.69;99149.84;5061299;28;20102;-83
2022/10/15 01:14:18;;;;;;;11.52;2.60;;;;;;;15.40;98.68;99147.25;5039530;28;20148;-83
2022/10/15 01:16:49;;;;;;;12.95;2.78;;;;;;;15.44;98.98;99153.06;5053385;28;20450;-82
2022/10/15 01:19:44;;;;;;;6.47;2.63;;;;;;;15.38;99.01;99154.63;5056424;28;20041;-82
2022/10/15 01:22:14;;;;;;;5.22;2.67;;;;;;;15.45;99.14;99150.22;5070051;28;20076;-82
2022/10/15 01:25:14;;;;;;;8.52;2.85;;;;;;;15.34;99.48;99147.97;5053177;28;20059;-83
2022/10/15 01:27:42;;;;;;;4.75;2.35;;;;;;;15.44;99.19;99145.84;5037228;28;20044;-83
2022/10/15 01:30:28;;;;;;;10.10;2.42;;;;;;;15.37;99.57;99140.44;5026993;28;20076;-83
2022/10/15 01:33:10;;;;;;;17.13;2.75;;;;;;;15.39;99.53;99140.22;5052086;28;20106;-83
2022/10/15 01:35:53;;;;;;;10.60;3.00;;;;;;;15.38;99.48;99136.72;5052124;28;20063;-83
2022/10/15 01:38:26;;;;;;;3.47;2.30;;;;;;;15.43;99.39;99138.03;5055333;28;20163;-83
2022/10/15 01:41:08;;;;;;;4.30;2.63;;;;;;;15.42;99.11;99134.53;5022751;28;20087;-83
2022/10/15 01:43:45;;;;;;;15.10;2.63;;;;;;;15.42;99.18;99137.22;5040177;28;20082;-82
2022/10/15 01:46:45;;;;;;;7.43;2.78;;;;;;;15.43;99.13;99125.47;5031002;28;20052;-82
2022/10/15 01:49:21;;;;;;;5.45;2.40;;;;;;;15.46;99.47;99126.97;5065640;28;20131;-82
2022/10/15 01:51:49;;;;;;;8.98;3.03;;;;;;;15.47;99.03;99132.13;5072261;28;20044;-83
2022/10/15 01:54:18;;;;;;;8.05;2.45;;;;;;;15.48;99.12;99131.13;5054290;28;20086;-82
2022/10/15 01:56:48;;;;;;;5.53;2.65;;;;;;;15.48;99.20;99131.13;5038390;28;20056;-82
2022/10/15 01:59:18;;;;;;;;;;;;;;;15.29;100.00;99127.16;5045024;28;20049;-82
2022/10/15 02:01:45;;;;;;;7.85;2.58;;;;;;;15.46;99.27;99122.44;5061833;28;19920;-82
2022/10/15 02:04:30;;;;;;;7.00;2.38;;;;;;;15.38;99.30;99119.84;5035027;28;20056;-82
2022/10/15 02:07:23;;;;;;;7.00;2.65;;;;;;;15.38;99.74;99123.34;5051424;28;20052;-82
2022/10/15 02:09:55;;;;;;;5.30;2.78;;;;;;;15.45;99.47;99119.97;5048406;28;20051;-82
2022/10/15 02:12:38;;;;;;;5.13;2.78;;;;;;;15.47;99.48;99117.91;5057073;28;20051;-82
2022/10/15 02:15:18;;;;;;;7.15;2.50;;;;;;;15.39;99.41;99108.13;5026824;28;20059;-82
2022/10/15 02:17:57;;;;;;;12.35;2.80;;;;;;;15.42;99.49;99115.81;5042994;28;20072;-82
2022/10/15 02:20:50;;;;;;;13.52;2.78;;;;;;;15.35;99.97;99117.56;5040960;28;20105;-82
2022/10/15 02:23:33;;;;;;;11.18;2.53;;;;;;;15.36;99.86;99117.34;5055249;28;20062;-82
2022/10/15 02:26:03;;;;;;;8.23;2.53;;;;;;;15.42;99.76;99110.47;5041354;28;20052;-82
2022/10/15 02:28:32;;;;;;;4.10;2.22;;;;;;;15.46;99.54;99111.72;5042716;28;20492;-81
2022/10/15 02:31:00;;;;;;;3.53;2.15;;;;;;;15.47;99.72;99112.56;5054664;28;20498;-81
2022/10/15 02:33:29;;;;;;;15.65;2.35;;;;;;;15.45;99.87;99112.75;5034131;28;20048;-82
2022/10/15 02:35:57;;;;;;;8.48;2.40;;;;;;;15.47;99.59;99123.25;5061290;28;20484;-82
2022/10/15 02:38:25;;;;;;;9.85;1.95;;;;;;;15.48;99.43;99109.72;5051678;28;20048;-82
2022/10/15 02:40:53;;;;;;;9.05;2.70;;;;;;;15.49;100.00;99111.34;5065978;28;20048;-82
2022/10/15 02:43:20;;;;;;;7.78;2.72;;;;;;;15.49;99.59;99105.19;5057558;28;20137;-82
2022/10/15 02:45:49;;;;;;;13.77;3.55;;;;;;;15.48;99.87;99109.72;5051042;28;20048;-82
2022/10/15 02:48:16;;;;;;;9.45;2.50;;;;;;;15.49;99.36;99108.69;5020049;28;20416;-82
2022/10/15 02:50:45;;;;;;;12.18;3.72;;;;;;;15.49;99.87;99105.19;5027256;28;20052;-83
2022/10/15 02:53:12;;;;;;;8.13;3.65;;;;;;;15.50;99.68;99106.84;5039436;28;20492;-83
2022/10/15 02:55:42;;;;;;;13.27;2.88;;;;;;;15.50;99.63;99105.00;5077007;28;20055;-83
2022/10/15 02:58:08;;;;;;;5.13;2.22;;;;;;;15.49;99.93;99108.69;5021527;28;20500;-83
2022/10/15 03:00:35;;;;;;;6.00;2.15;;;;;;;15.50;99.50;99113.03;5047566;28;20049;-83
2022/10/15 03:03:02;;;;;;;5.13;1.70;;;;;;;15.51;99.71;99106.66;5042335;28;20063;-82
2022/10/15 03:05:29;;;;;;;11.23;2.20;;;;;;;15.52;99.94;99112.81;5041325;28;20519;-83
2022/10/15 03:07:58;;;;;;;4.10;1.65;;;;;;;15.53;99.60;99109.97;5045814;28;20040;-82
2022/10/15 03:10:26;;;;;;;7.30;1.67;;;;;;;15.54;99.39;99110.81;5070824;28;20060;-82
2022/10/15 03:12:53;;;;;;;3.38;1.60;;;;;;;15.54;99.54;99102.78;5033890;28;20139;-82
2022/10/15 03:15:20;;;;;;;4.40;1.92;;;;;;;15.54;99.53;99100.09;5058175;28;20040;-83
2022/10/15 03:17:47;;;;;;;5.00;2.05;;;;;;;15.51;99.70;99092.44;5007733;28;20067;-83
2022/10/15 03:20:16;;;;;;;4.55;2.08;;;;;;;15.55;99.64;99107.13;5041127;28;20147;-83
2022/10/15 03:22:43;;;;;;;3.83;2.05;;;;;;;15.57;99.59;99103.25;5036959;28;20087;-83
2022/10/15 03:25:10;;;;;;;6.85;2.03;;;;;;;15.56;99.89;99100.75;5047503;28;20061;-83
2022/10/15 03:27:37;;;;;;;2.05;1.65;;;;;;;15.55;100.00;99102.59;5044911;28;20123;-83
2022/10/15 03:30:14;;;;;;;7.90;1.80;;;;;;;15.54;100.00;99108.94;5061619;28;20055;-83
2022/10/15 03:32:41;;;;;;;9.25;2.00;;;;;;;15.53;100.00;99109.97;5061376;28;20114;-83
2022/10/15 03:35:09;;;;;;;3.13;1.83;;;;;;;15.55;100.00;99107.13;5051462;28;20050;-83
2022/10/15 03:37:35;;;;;;;4.28;1.88;;;;;;;15.56;100.00;99106.09;5046810;28;20061;-83
2022/10/15 03:40:05;;;;;;;2.25;1.52;;;;;;;15.56;100.00;99098.06;5070775;28;20048;-83
2022/10/15 03:42:40;;;;;;;3.58;1.40;;;;;;;15.59;100.00;99093.16;5027492;28;20048;-82
2022/10/15 03:45:08;;;;;;;2.72;1.17;;;;;;;15.63;100.00;99101.66;5048775;28;20076;-83
2022/10/15 03:47:35;;;;;;;3.67;1.30;;;;;;;15.64;100.00;99104.16;5045603;28;20040;-83
2022/10/15 03:50:02;;;;;;;1.48;0.75;;;;;;;15.69;100.00;99108.97;5039042;28;20074;-83
2022/10/15 03:52:29;;;;;;;5.38;1.40;;;;;;;15.71;100.00;99114.16;5023079;28;20654;-83
2022/10/15 03:54:56;;;;;;;6.97;1.73;;;;;;;15.68;100.00;99107.28;5026834;28;20716;-83
2022/10/15 03:57:23;;;;;;;7.10;1.30;;;;;;;15.70;100.00;99107.97;5040864;28;20079;-83
2022/10/15 03:59:59;;;;;;;1.25;0.65;;;;;;;15.71;100.00;99108.81;5029890;28;20489;-83
2022/10/15 04:02:27;;;;;;;3.92;1.83;;;;;;;15.75;100.00;99104.75;5077278;28;20040;-84
2022/10/15 04:04:55;;;;;;;1.73;1.27;;;;;;;15.78;100.00;99105.19;5032038;28;20487;-84
2022/10/15 04:07:22;;;;;;;1.20;1.02;;;;;;;15.82;100.00;99119.88;5026572;28;20530;-83
2022/10/15 04:09:50;;;;;;;5.50;1.10;;;;;;;15.83;100.00;99116.16;5049963;28;20112;-83
2022/10/15 04:12:23;;;;;;;0.65;0.65;;;;;;;15.86;100.00;99114.97;5021749;28;20040;-83
2022/10/15 04:14:51;;;;;;;1.52;0.70;;;;;;;15.88;100.00;99112.09;5038476;28;20048;-84
2022/10/15 04:17:18;;;;;;;0.70;0.70;;;;;;;15.88;100.00;99112.94;5051100;28;20517;-83
2022/10/15 04:19:44;;;;;;;3.58;0.90;;;;;;;15.92;100.00;99122.22;5034025;28;20055;-85
2022/10/15 04:22:13;;;;;;;1.17;0.90;;;;;;;15.93;100.00;99117.72;5058501;28;20447;-84
2022/10/15 04:24:46;;;;;;;1.00;0.70;;;;;;;15.93;100.00;99123.09;5045306;28;20737;-83
2022/10/15 04:27:23;;;;;;;3.28;1.00;;;;;;;15.95;100.00;99123.69;5041613;28;20068;-83
2022/10/15 04:29:50;;;;;;;0.70;0.70;;;;;;;15.96;100.00;99126.22;5047168;28;20176;-84
2022/10/15 04:32:17;;;;;;;2.53;0.80;;;;;;;15.98;100.00;99134.06;5038334;28;20106;-83
2022/10/15 04:34:45;;;;;;;0.70;0.70;;;;;;;15.97;100.00;99125.19;5036809;28;20131;-84
2022/10/15 04:37:14;;;;;;;0.73;0.70;;;;;;;15.99;100.00;99130.34;5050210;28;20058;-84
2022/10/15 04:39:41;;;;;;;4.57;0.90;;;;;;;15.99;100.00;99133.84;5056692;28;20110;-84
2022/10/15 04:42:11;;;;;;;1.05;0.60;;;;;;;16.00;100.00;99132.84;5037421;28;20051;-83
2022/10/15 04:44:39;;;;;;;1.05;0.70;;;;;;;16.01;100.00;99145.22;5029764;28;20040;-83
2022/10/15 04:47:06;;;;;;;1.33;0.70;;;;;;;16.02;100.00;99149.53;5037568;28;20051;-83
2022/10/15 04:50:02;;;;;;;0.80;0.70;;;;;;;16.02;100.00;99149.53;5038646;28;20044;-84
2022/10/15 04:52:49;;;;;;;1.33;0.82;;;;;;;16.01;100.00;99145.22;5059340;28;20151;-84
2022/10/15 04:55:16;;;;;;;1.23;0.80;;;;;;;16.03;100.00;99151.22;5041105;28;20056;-83
2022/10/15 04:57:43;;;;;;;1.60;0.75;;;;;;;16.03;100.00;99158.44;5054943;28;20387;-82
2022/10/15 05:00:11;;;;;;;0.70;0.70;;;;;;;16.05;100.00;99142.97;5061451;28;20048;-82
2022/10/15 05:02:52;;;;;;;1.17;0.90;;;;;;;16.04;100.00;99150.19;5056427;28;20740;-83
2022/10/15 05:05:24;;;;;;;1.38;0.80;;;;;;;16.05;100.00;99146.50;5048238;28;20476;-83
2022/10/15 05:08:02;;;;;;;1.40;1.17;;;;;;;16.03;100.00;99161.09;5048934;28;20048;-83
2022/10/15 05:10:33;;;;;;;1.15;1.02;;;;;;;16.06;100.00;99160.72;5018645;28;20558;-83
2022/10/15 05:13:03;;;;;;;1.75;1.00;;;;;;;16.07;100.00;99151.66;5053954;28;20602;-83
2022/10/15 05:15:33;;;;;;;1.02;1.00;;;;;;;16.07;100.00;99154.34;5060881;28;20050;-83
2022/10/15 05:18:03;;;;;;;2.35;1.45;;;;;;;16.09;100.00;99171.06;5046714;28;20659;-83
2022/10/15 05:20:39;;;;;;;1.17;1.08;;;;;;;16.08;100.00;99158.69;5051574;28;20106;-83
2022/10/15 05:23:11;;;;;;;1.10;1.05;;;;;;;16.09;100.00;99162.19;5046141;28;20487;-83
2022/10/15 05:25:41;;;;;;;2.45;1.48;;;;;;;16.11;100.00;99177.06;5054182;28;20060;-84
2022/10/15 05:28:08;;;;;;;1.50;1.40;;;;;;;16.11;100.00;99169.03;5024505;28;20109;-83
2022/10/15 05:30:34;;;;;;;2.65;1.25;;;;;;;16.12;100.00;99186.75;5041212;28;20445;-84
2022/10/15 05:33:02;;;;;;;5.15;1.55;;;;;;;16.11;100.00;99189.63;5034400;28;20488;-84
2022/10/15 05:35:29;;;;;;;3.58;1.58;;;;;;;16.11;100.00;99189.63;5039922;28;20060;-84
2022/10/15 05:38:03;;;;;;;1.83;1.63;;;;;;;16.08;100.00;99190.84;5055830;28;20253;-83
2022/10/15 05:40:30;;;;;;;5.53;1.80;;;;;;;16.10;100.00;99191.47;5047726;28;20067;-83
2022/10/15 05:43:03;;;;;;;2.33;1.20;;;;;;;16.10;100.00;99198.66;5008264;28;20110;-83
2022/10/15 05:45:29;;;;;;;6.30;1.60;;;;;;;16.10;100.00;99207.53;5032468;28;20094;-83
2022/10/15 05:48:02;;;;;;;4.57;1.80;;;;;;;16.10;100.00;99214.72;5057401;28;20502;-83
2022/10/15 05:50:28;;;;;;;3.08;2.17;;;;;;;16.09;100.00;99221.13;5033114;28;20643;-83
2022/10/15 05:52:56;;;;;;;3.92;2.13;;;;;;;16.11;100.00;99221.78;5066887;28;20135;-84
2022/10/15 05:55:30;;;;;;;4.88;1.90;;;;;;;16.09;100.00;99221.13;5038198;28;20055;-84
2022/10/15 05:58:00;;;;;;;4.80;1.77;;;;;;;16.09;100.00;99227.31;5056948;28;20055;-84
2022/10/15 06:00:27;;;;;;;2.75;2.05;;;;;;;16.11;100.00;99227.13;5052245;28;20090;-84
2022/10/15 06:02:53;;;;;;;5.97;2.40;;;;;;;16.12;100.00;99236.81;5046478;28;20650;-84
2022/10/15 06:05:21;;;;;;;2.83;1.65;;;;;;;16.12;100.00;99236.81;5067197;28;20495;-84
2022/10/15 06:07:48;;;;;;;4.20;1.70;;;;;;;16.12;100.00;99253.72;5028300;28;20456;-84
2022/10/15 06:10:14;;;;;;;2.08;1.55;;;;;;;16.13;100.00;99247.34;5062362;28;20434;-84
2022/10/15 06:12:41;;;;;;;2.20;2.05;;;;;;;16.14;100.00;99243.66;5059673;28;20102;-84
2022/10/15 06:15:09;;;;;;;3.20;1.98;;;;;;;16.14;100.00;99250.84;5058263;28;20056;-84
2022/10/15 06:17:36;;;;;;;2.05;1.83;;;;;;;16.15;100.00;99249.81;5061535;28;20043;-84
2022/10/15 06:20:06;;;;;;;2.45;1.80;;;;;;;16.13;100.00;99260.75;5045027;28;20356;-84
2022/10/15 06:22:33;;;;;;;2.90;1.90;;;;;;;16.14;100.00;99262.41;5051335;28;20044;-85
2022/10/15 06:24:59;;;;;;;2.38;1.75;;;;;;;16.15;100.00;99258.69;5027744;28;20049;-84
2022/10/15 06:27:27;;;;;;;2.17;1.67;;;;;;;16.17;100.00;99267.38;5064558;28;20854;-84
2022/10/15 06:29:53;;;;;;;2.88;1.80;;;;;;;16.17;100.00;99266.56;5065422;28;20431;-85
2022/10/15 06:32:20;;;;;;;1.73;1.52;;;;;;;16.17;100.00;99269.22;5056005;28;20110;-84
2022/10/15 06:34:47;;;;;;;2.03;1.48;;;;;;;16.17;100.00;99267.38;5055324;28;20103;-85
2022/10/15 06:37:13;;;;;;;3.88;2.00;;;;;;;16.20;100.00;99277.72;5066252;28;20040;-84
2022/10/15 06:39:40;;;;;;;2.50;1.77;;;;;;;16.19;100.00;99281.41;5046014;28;20049;-85
2022/10/15 06:42:07;;;;;;;3.10;1.65;;;;;;;16.20;100.00;99287.59;5063362;28;20040;-84
2022/10/15 06:44:40;;;;;;;4.38;2.28;;;;;;;16.20;100.00;99285.75;5076254;28;20040;-84
2022/10/15 06:47:07;;;;;;;3.92;2.03;;;;;;;16.20;100.00;99288.44;5037006;28;20086;-83
2022/10/15 06:49:34;;;;;;;3.78;2.00;;;;;;;16.21;100.00;99292.78;5075131;28;20602;-83
2022/10/15 06:52:00;;;;;;;3.42;1.90;;;;;;;16.21;100.00;99303.50;5063760;28;20044;-83
2022/10/15 06:54:29;;;;;;;2.65;2.08;;;;;;;16.24;100.00;99305.81;5078931;28;20490;-83
2022/10/15 06:56:56;;;;;;;4.35;2.00;;;;;;;16.21;100.00;99302.69;5043617;28;20132;-83
2022/10/15 06:59:22;;;;;;;2.83;1.85;;;;;;;16.23;100.00;99312.19;5040256;28;20040;-83
2022/10/15 07:01:49;;;;;;;3.90;2.05;;;;;;;16.24;100.00;99310.34;5072193;28;20040;-83
2022/10/15 07:04:16;;;;;;;3.53;2.20;;;;;;;16.25;100.00;99311.97;5064744;28;20074;-82
2022/10/15 07:06:42;;;;;;;4.57;1.70;;;;;;;16.27;100.00;99313.47;5048213;28;20048;-83
2022/10/15 07:09:09;;;;;;;3.35;2.10;;;;;;;16.28;100.00;99317.81;5076583;28;20045;-83
2022/10/15 07:11:36;;;;;;;2.22;1.65;;;;;;;16.29;100.00;99318.66;5074295;28;20046;-83
2022/10/15 07:14:02;;;;;;;3.45;1.70;;;;;;;16.30;100.00;99327.50;5063419;28;20090;-83
2022/10/15 07:16:29;;;;;;;3.55;1.67;;;;;;;16.30;100.00;99332.88;5059467;28;20040;-83
2022/10/15 07:18:56;;;;;;;2.80;1.60;;;;;;;16.31;100.00;99337.19;5045326;28;20053;-83
2022/10/15 07:21:22;;;;;;;2.42;1.50;;;;;;;16.30;100.00;99336.38;5011551;28;20097;-84
2022/10/15 07:23:49;;;;;;;2.10;1.63;;;;;;;16.32;100.00;99344.25;5052651;28;20090;-84
2022/10/15 07:26:16;;;;;;;3.25;1.80;;;;;;;16.32;100.00;99341.56;5073006;28;20052;-84
2022/10/15 07:28:42;;;;;;;4.15;2.22;;;;;;;16.33;100.00;99341.34;5075936;28;20047;-84
2022/10/15 07:31:09;;;;;;;4.97;1.92;;;;;;;16.33;100.00;99340.53;5042610;28;20045;-83
2022/10/15 07:33:36;;;;;;;2.80;1.73;;;;;;;16.35;100.00;99342.00;5059329;28;20053;-84
2022/10/15 07:36:08;;;;;;;3.28;2.05;;;;;;;16.33;100.00;99341.34;5024885;28;20048;-83
2022/10/15 07:38:35;;;;;;;2.80;1.60;;;;;;;16.35;100.00;99350.03;5073473;28;20044;-83
2022/10/15 07:41:02;;;;;;;4.00;1.85;;;;;;;16.36;100.00;99351.72;5064534;28;20048;-84
2022/10/15 07:43:31;;;;;;;3.50;2.15;;;;;;;16.36;100.00;99353.56;5039700;28;20527;-84
2022/10/15 07:45:58;;;;;;;2.70;2.28;;;;;;;16.35;100.00;99355.41;5031188;28;20049;-84
2022/10/15 07:48:24;;;;;;;4.45;2.60;;;;;;;16.37;100.00;99355.22;5073725;28;20082;-82
2022/10/15 07:51:02;;;;;;;4.10;2.53;;;;;;;16.31;100.00;99356.81;5031722;28;20044;-83
2022/10/15 07:53:30;;;;;;;3.45;2.47;;;;;;;16.35;100.00;99363.44;5073429;28;20044;-84
2022/10/15 07:56:00;;;;;;;2.97;2.45;;;;;;;16.35;100.00;99362.63;5059552;28;20052;-84
2022/10/15 07:58:37;;;;;;;5.55;3.20;;;;;;;16.35;100.00;99368.81;5041876;28;20068;-83
2022/10/15 08:01:05;;;;;;;7.53;3.28;;;;;;;16.35;100.00;99376.03;5054873;28;20425;-84
2022/10/15 08:03:33;;;;;;;5.15;2.80;;;;;;;16.35;100.00;99378.69;5060129;28;20451;-83
2022/10/15 08:06:01;;;;;;;4.80;3.15;;;;;;;16.36;100.00;99383.03;5078964;28;20131;-84
2022/10/15 08:08:29;;;;;;;5.78;4.05;;;;;;;16.37;100.00;99382.03;5045771;28;20044;-82
2022/10/15 08:10:56;;;;;;;6.20;4.65;;;;;;;16.37;100.00;99384.72;5059374;28;20075;-83
2022/10/15 08:13:23;;;;;;;4.68;4.00;;;;;;;16.35;100.00;99384.06;5055483;28;20079;-83
2022/10/15 08:15:53;;;;;;;6.32;4.30;;;;;;;16.38;100.00;99397.91;5061018;28;20127;-84
2022/10/15 08:18:26;;;;;;;6.37;4.37;;;;;;;16.37;100.00;99390.06;5052077;28;20506;-83
2022/10/15 08:20:53;;;;;;;9.00;3.95;;;;;;;16.40;100.00;99395.06;5040693;28;20041;-83
2022/10/15 08:23:19;;;;;;;5.40;3.53;;;;;;;16.40;100.00;99395.88;5054360;28;20599;-82
2022/10/15 08:25:46;;;;;;;5.90;3.95;;;;;;;16.43;100.00;99394.69;5039378;28;20048;-83
2022/10/15 08:28:14;;;;;;;5.63;4.25;;;;;;;16.43;100.00;99406.22;5064225;28;20044;-83
2022/10/15 08:30:40;;;;;;;6.32;4.18;;;;;;;16.43;100.00;99400.03;5059221;28;20040;-83
2022/10/15 08:33:11;;;;;;;9.18;3.75;;;;;;;16.45;100.00;99400.69;5074587;28;20041;-83
2022/10/15 08:35:42;;;;;;;8.25;3.70;;;;;;;16.45;100.00;99406.06;5062474;28;20393;-83
2022/10/15 08:38:10;;;;;;;4.70;3.25;;;;;;;16.47;100.00;99412.88;5064012;28;20090;-83
2022/10/15 08:40:51;;;;;;;8.32;3.83;;;;;;;16.45;100.00;99409.56;5066168;28;20036;-82
2022/10/15 08:43:42;;;;;;;5.30;3.08;;;;;;;16.47;100.00;99425.47;5043438;28;20040;-82
2022/10/15 08:46:17;;;;;;;4.80;3.30;;;;;;;16.49;100.00;99420.75;5053182;28;20044;-81
2022/10/15 08:48:49;;;;;;;2.60;2.40;;;;;;;16.47;100.00;99426.28;5055991;28;20036;-83
2022/10/15 08:51:19;;;;;;;2.93;2.20;;;;;;;16.48;100.00;99429.78;5035211;28;20045;-84
2022/10/15 08:53:49;;;;;;;4.20;2.58;;;;;;;16.52;100.00;99430.28;5058713;28;20056;-83
2022/10/15 08:56:38;;;;;;;5.10;2.60;;;;;;;16.50;100.00;99436.63;5040152;28;20124;-84
2022/10/15 08:59:11;;;;;;;4.78;2.65;;;;;;;16.50;100.00;99436.63;5064292;28;20410;-84
2022/10/15 09:01:47;;;;;;;6.82;3.38;;;;;;;16.48;100.00;99437.84;5038489;28;20110;-84
2022/10/15 09:04:32;;;;;;;9.23;4.88;;;;;;;16.44;100.00;99434.72;5027996;28;20522;-84
2022/10/15 09:07:29;;;;;;;9.57;4.00;;;;;;;16.43;100.00;99441.06;5075331;28;20040;-84
2022/10/15 09:10:15;;;;;;;10.38;5.65;;;;;;;16.46;100.00;99445.22;5052904;28;20449;-82
2022/10/15 09:12:52;;;;;;;12.20;5.93;;;;;;;16.51;100.00;99448.19;5046683;28;20362;-82
2022/10/15 09:15:20;;;;;;;18.58;7.55;;;;;;;16.56;100.00;99440.41;5069610;28;20037;-80
2022/10/15 09:17:53;;;;;;;17.80;8.23;;;;;;;16.60;100.00;99440.91;5060595;28;20111;-82
2022/10/15 09:20:25;;;;;;;13.65;6.50;;;;;;;16.61;100.00;99445.25;5060010;28;20044;-82
2022/10/15 09:22:52;;;;;;;8.52;5.40;;;;;;;16.61;100.00;99447.91;5071798;28;20525;-82
2022/10/15 09:25:21;;;;;;;8.38;4.63;;;;;;;16.61;100.00;99443.41;5054738;28;20055;-86
2022/10/15 09:27:50;;;;;;;6.25;4.55;;;;;;;16.62;100.00;99441.56;5058077;28;20048;-85
2022/10/15 09:30:33;;;;;;;7.47;3.97;;;;;;;16.59;100.00;99450.81;5054114;28;20036;-86
2022/10/15 09:33:29;;;;;;;8.68;3.50;;;;;;;16.60;100.00;99446.28;5056028;28;20106;-85
2022/10/15 09:36:11;;;;;;;6.55;2.83;;;;;;;16.58;100.00;99445.63;5039434;28;20051;-85
2022/10/15 09:39:04;;;;;;;5.50;3.55;;;;;;;16.54;100.00;99438.94;5067963;28;20045;-85
2022/10/15 09:41:48;;;;;;;6.32;2.97;;;;;;;16.58;100.00;99448.28;5040076;28;20051;-84
2022/10/15 09:44:17;;;;;;;5.63;2.85;;;;;;;16.64;100.00;99439.53;5077186;28;20040;-82
2022/10/15 09:46:49;;;;;;;2.50;1.85;;;;;;;16.66;100.00;99448.19;5061386;28;20556;-82
2022/10/15 09:49:24;;;;;;;3.70;2.00;;;;;;;16.62;100.00;99447.75;5054092;28;20041;-83
2022/10/15 09:52:03;;;;;;;1.88;1.65;;;;;;;16.61;100.00;99453.28;5074080;28;20086;-82
2022/10/15 09:54:47;;;;;;;3.05;1.90;;;;;;;16.60;100.00;99452.44;5077442;28;20048;-85
2022/10/15 09:57:16;;;;;;;5.22;2.42;;;;;;;16.67;100.00;99453.38;5059381;28;20047;-86
2022/10/15 09:59:59;;;;;;;4.95;3.60;;;;;;;16.61;100.00;99454.13;5055085;28;20173;-86
2022/10/15 10:02:26;;;;;;;8.48;3.80;;;;;;;16.68;100.00;99459.56;5051452;28;20059;-83
2022/10/15 10:04:55;;;;;;;5.15;3.17;;;;;;;16.69;100.00;99456.72;5056096;28;20468;-84
2022/10/15 10:07:35;;;;;;;5.57;2.60;;;;;;;16.63;100.00;99452.06;5037990;28;20064;-83
2022/10/15 10:10:26;;;;;;;2.55;2.00;;;;;;;16.59;100.00;99453.47;5074938;28;20048;-83
2022/10/15 10:12:54;;;;;;;2.33;1.70;;;;;;;16.68;100.00;99462.25;5065913;28;20098;-84
2022/10/15 10:15:39;;;;;;;3.72;2.10;;;;;;;16.64;100.00;99458.28;5052303;28;20045;-84
2022/10/15 10:18:27;;;;;;;4.75;2.00;;;;;;;16.61;100.00;99462.19;5059944;28;20040;-83
2022/10/15 10:21:00;;;;;;;5.60;1.88;;;;;;;16.71;100.00;99472.59;5047537;28;20041;-84
2022/10/15 10:23:38;;;;;;;3.92;1.80;;;;;;;16.64;100.00;99472.53;5055677;28;20655;-84
2022/10/15 10:26:07;;;;;;;2.63;1.67;;;;;;;16.71;100.00;99464.56;5052730;28;20040;-84
2022/10/15 10:28:35;;;;;;;3.75;2.40;;;;;;;16.68;100.00;99479.16;5070761;28;20080;-84
2022/10/15 10:31:09;;;;;;;3.30;1.77;;;;;;;16.68;100.00;99481.84;5089515;28;20044;-84
2022/10/15 10:33:41;;;;;;;6.43;1.70;;;;;;;16.65;100.00;99479.53;5044460;28;20048;-84
2022/10/15 10:36:38;;;;;;;3.13;1.73;;;;;;;16.61;100.00;99482.75;5075431;28;20468;-84
2022/10/15 10:39:12;;;;;;;3.20;2.20;;;;;;;16.65;100.00;99484.06;5077028;28;20040;-85
2022/10/15 10:41:49;;;;;;;6.80;2.10;;;;;;;16.61;100.00;99493.50;5063921;28;20105;-84
2022/10/15 10:44:21;;;;;;;6.10;2.28;;;;;;;16.63;100.00;99484.25;5059423;28;20106;-83
2022/10/15 10:47:03;;;;;;;3.92;2.08;;;;;;;16.61;100.00;99474.72;5062218;28;20056;-85
2022/10/15 10:49:40;;;;;;;4.63;2.20;;;;;;;16.67;100.00;99488.25;5073077;28;20048;-84
2022/10/15 10:52:21;;;;;;;4.10;2.20;;;;;;;16.69;100.00;99474.66;5082207;28;20044;-85
2022/10/15 10:54:55;;;;;;;3.72;1.77;;;;;;;16.77;100.00;99487.97;5069517;28;20052;-85
2022/10/15 10:57:32;;;;;;;5.07;1.85;;;;;;;16.81;100.00;99485.78;5072645;28;20036;-85
2022/10/15 10:59:59;;;;;;;3.50;1.40;;;;;;;16.85;100.00;99474.50;5047506;28;20469;-85
2022/10/15 11:02:26;;;;;;;1.83;1.67;;;;;;;16.89;100.00;99481.16;5071357;28;20079;-84
2022/10/15 11:04:53;;;;;;;4.05;1.88;;;;;;;16.93;100.00;99485.13;5064643;28;20479;-85
2022/10/15 11:07:28;;;;;;;3.30;1.80;;;;;;;16.92;100.00;99485.34;5042767;28;20041;-84
2022/10/15 11:10:19;;;;;;;4.28;1.90;;;;;;;16.89;100.00;99488.34;5069086;28;20141;-84
2022/10/15 11:12:58;;;;;;;3.42;2.03;;;;;;;16.94;100.00;99472.53;5072311;28;20037;-84
2022/10/15 11:15:55;;;;;;;4.38;1.42;;;;;;;16.95;100.00;99476.91;5069874;28;20041;-84
2022/10/15 11:18:41;;;;;;;4.13;1.40;;;;;;;17.05;100.00;99466.72;5066768;28;20044;-84
2022/10/15 11:22:00;;;;;;;3.88;1.35;;;;;;;16.99;100.00;99470.13;5082915;28;20534;-84
2022/10/15 11:24:47;;;;;;;2.28;1.20;;;;;;;17.07;100.00;99469.19;4990821;28;20429;-83
2022/10/15 11:27:52;;;;;;;4.45;1.30;;;;;;;17.09;100.00;99469.84;4969588;28;20414;-83
2022/10/15 11:30:37;;;;;;;3.15;1.50;;;;;;;17.13;100.00;99466.63;5051744;28;20060;-83
2022/10/15 11:33:32;;;;;;;3.90;1.38;;;;;;;17.15;100.00;99466.44;5042343;28;20101;-83
2022/10/15 11:36:17;;;;;;;2.50;1.13;;;;;;;17.18;100.00;99460.69;5068289;28;20044;-83
2022/10/15 11:39:05;;;;;;;5.70;1.90;;;;;;;17.20;100.00;99461.34;5054786;28;20044;-84
2022/10/15 11:42:02;;;;;;;3.95;1.30;;;;;;;17.25;100.00;99458.06;5077653;28;20046;-83
2022/10/15 11:44:44;;;;;;;4.90;2.22;;;;;;;17.24;100.00;99451.88;5080813;28;20070;-82
2022/10/15 11:47:31;;;;;;;4.80;1.60;;;;;;;17.27;100.00;99445.31;5075148;28;20931;-82
2022/10/15 11:50:37;;;;;;;3.53;2.45;;;;;;;17.32;100.00;99438.34;5038980;28;20498;-89
2022/10/15 11:53:19;;;;;;;9.65;1.40;;;;;;;17.42;100.00;99432.69;5054121;28;20052;-89